createdAt,value
2022-11-19T00:01:55.943Z,97640.59
2022-11-19T00:04:23.475Z,97637.09
2022-11-19T00:06:50.875Z,97638.48
2022-11-19T00:09:18.550Z,97637.50
2022-11-19T00:11:46.264Z,97639.83
2022-11-19T00:14:13.736Z,97642.56
2022-11-19T00:16:41.125Z,97641.98
2022-11-19T00:19:08.679Z,97639.77
2022-11-19T00:21:36.131Z,97639.20
2022-11-19T00:24:03.617Z,97641.16
2022-11-19T00:26:31.019Z,97645.34
2022-11-19T00:28:58.504Z,97648.60
2022-11-19T00:31:25.985Z,97651.34
2022-11-19T00:33:53.375Z,97650.38
2022-11-19T00:36:20.770Z,97652.15
2022-11-19T00:38:48.150Z,97656.58
2022-11-19T00:41:15.520Z,97657.81
2022-11-19T00:43:42.960Z,97665.24
2022-11-19T00:46:10.393Z,97667.49
2022-11-19T00:48:37.779Z,97667.98
2022-11-19T00:51:05.219Z,97671.20
2022-11-19T00:53:32.638Z,97665.27
2022-11-19T00:56:00.022Z,97661.36
2022-11-19T00:58:27.428Z,97659.29
2022-11-19T01:00:54.839Z,97660.06
2022-11-19T01:03:22.274Z,97662.33
2022-11-19T01:05:49.694Z,97668.28
2022-11-19T01:08:17.092Z,97666.68
2022-11-19T01:10:44.504Z,97668.92
2022-11-19T01:13:11.901Z,97667.04
2022-11-19T01:15:39.403Z,97666.22
2022-11-19T01:18:06.793Z,97660.02
2022-11-19T01:20:34.287Z,97670.40
2022-11-19T01:23:01.784Z,97676.33
2022-11-19T01:25:29.188Z,97677.08
2022-11-19T01:27:56.591Z,97673.65
2022-11-19T01:30:23.999Z,97678.41
2022-11-19T01:32:51.444Z,97678.96
2022-11-19T01:35:18.816Z,97682.95
2022-11-19T01:37:46.204Z,97684.47
2022-11-19T01:40:13.623Z,97686.00
2022-11-19T01:42:41.017Z,97693.23
2022-11-19T01:45:08.404Z,97689.89
2022-11-19T01:47:35.806Z,97691.15
2022-11-19T01:50:03.185Z,97692.29
2022-11-19T01:52:30.557Z,97693.79
2022-11-19T01:54:57.961Z,97696.66
2022-11-19T01:57:25.349Z,97696.37
2022-11-19T01:59:52.743Z,97687.64
2022-11-19T02:02:20.124Z,97685.16
2022-11-19T02:04:47.606Z,97695.88
2022-11-19T02:07:15.049Z,97697.61
2022-11-19T02:09:42.494Z,97692.06
2022-11-19T02:12:09.879Z,97694.29
2022-11-19T02:14:37.332Z,97694.29
2022-11-19T02:17:04.746Z,97703.77
2022-11-19T02:19:32.133Z,97708.82
2022-11-19T02:21:59.517Z,97709.17
2022-11-19T02:24:26.948Z,97713.02
2022-11-19T02:26:54.348Z,97710.19
2022-11-19T02:29:21.981Z,97708.95
2022-11-19T02:31:49.555Z,97715.20
2022-11-19T02:34:16.988Z,97715.82
2022-11-19T02:36:44.391Z,97727.03
2022-11-19T02:39:11.785Z,97733.69
2022-11-19T02:41:39.168Z,97745.81
2022-11-19T02:44:06.640Z,97752.30
2022-11-19T02:46:34.157Z,97750.80
2022-11-19T02:49:01.665Z,97756.60
2022-11-19T02:51:29.039Z,97759.14
2022-11-19T02:53:56.427Z,97750.92
2022-11-19T02:56:23.892Z,97755.17
2022-11-19T02:58:51.292Z,97759.02
2022-11-19T03:01:18.726Z,97756.73
2022-11-19T03:03:46.218Z,97756.94
2022-11-19T03:06:13.591Z,97753.77
2022-11-19T03:08:40.983Z,97752.88
2022-11-19T03:11:08.398Z,97755.16
2022-11-19T03:13:35.815Z,97749.77
2022-11-19T03:16:03.211Z,97746.29
2022-11-19T03:18:30.634Z,97751.20
2022-11-19T03:20:58.090Z,97754.06
2022-11-19T03:23:25.458Z,97762.04
2022-11-19T03:25:52.885Z,97761.33
2022-11-19T03:28:20.358Z,97772.23
2022-11-19T03:30:47.766Z,97776.66
2022-11-19T03:33:15.187Z,97781.15
2022-11-19T03:35:42.604Z,97774.96
2022-11-19T03:38:10.010Z,97778.06
2022-11-19T03:40:37.415Z,97779.95
2022-11-19T03:43:04.795Z,97782.98
2022-11-19T03:45:32.174Z,97789.33
2022-11-19T03:47:59.593Z,97789.20
2022-11-19T03:50:26.970Z,97793.52
2022-11-19T03:52:54.371Z,97803.45
2022-11-19T03:55:21.882Z,97802.11
2022-11-19T03:57:49.337Z,97803.52
2022-11-19T04:00:16.722Z,97806.45
2022-11-19T04:02:44.118Z,97806.83
2022-11-19T04:05:11.571Z,97806.13
2022-11-19T04:07:39.079Z,97803.33
2022-11-19T04:10:06.533Z,97809.45
2022-11-19T04:12:33.943Z,97806.19
2022-11-19T04:15:01.351Z,97805.48
2022-11-19T04:17:28.765Z,97809.13
2022-11-19T04:19:56.163Z,97812.65
2022-11-19T04:22:23.588Z,97815.16
2022-11-19T04:24:50.961Z,97817.66
2022-11-19T04:27:18.499Z,97820.60
2022-11-19T04:29:45.882Z,97824.74
2022-11-19T04:32:13.310Z,97824.29
2022-11-19T04:34:40.719Z,97828.95
2022-11-19T04:37:08.120Z,97833.12
2022-11-19T04:39:35.539Z,97833.57
2022-11-19T04:42:02.937Z,97840.21
2022-11-19T04:44:30.355Z,97839.72
2022-11-19T04:46:57.747Z,97836.29
2022-11-19T04:49:25.123Z,97840.36
2022-11-19T04:51:52.535Z,97844.96
2022-11-19T04:54:19.952Z,97843.85
2022-11-19T04:56:47.372Z,97849.27
2022-11-19T04:59:14.874Z,97852.02
2022-11-19T05:01:42.431Z,97856.70
2022-11-19T05:04:09.907Z,97855.92
2022-11-19T05:06:37.381Z,97856.70
2022-11-19T05:09:04.771Z,97860.57
2022-11-19T05:11:32.213Z,97867.41
2022-11-19T05:13:59.619Z,97870.09
2022-11-19T05:16:27.062Z,97869.60
2022-11-19T05:18:54.556Z,97873.55
2022-11-19T05:21:22.074Z,97875.96
2022-11-19T05:23:49.468Z,97879.73
2022-11-19T05:26:16.864Z,97886.66
2022-11-19T05:28:44.282Z,97887.94
2022-11-19T05:31:11.801Z,97888.00
2022-11-19T05:33:39.208Z,97884.02
2022-11-19T05:36:06.625Z,97889.04
2022-11-19T05:38:34.131Z,97894.13
2022-11-19T05:41:01.642Z,97899.12
2022-11-19T05:43:29.156Z,97905.21
2022-11-19T05:45:56.559Z,97909.42
2022-11-19T05:48:23.961Z,97914.41
2022-11-19T05:50:51.365Z,97917.34
2022-11-19T05:53:18.740Z,97916.60
2022-11-19T05:55:46.248Z,97918.23
2022-11-19T05:58:13.659Z,97921.67
2022-11-19T06:00:41.112Z,97926.60
2022-11-19T06:03:08.522Z,97927.98
2022-11-19T06:05:40.000Z,97932.38
2022-11-19T06:08:08.033Z,97934.39
2022-11-19T06:10:35.427Z,97941.48
2022-11-19T06:13:02.871Z,97944.41
2022-11-19T06:15:30.333Z,97945.91
2022-11-19T06:17:57.733Z,97946.17
2022-11-19T06:20:25.117Z,97949.91
2022-11-19T06:22:52.512Z,97958.98
2022-11-19T06:25:20.008Z,97964.46
2022-11-19T06:27:47.415Z,97969.62
2022-11-19T06:30:14.935Z,97974.48
2022-11-19T06:32:42.393Z,97978.72
2022-11-19T06:35:09.792Z,97985.48
2022-11-19T06:37:37.181Z,97990.86
2022-11-19T06:40:04.597Z,97994.45
2022-11-19T06:42:31.963Z,97996.10
2022-11-19T06:44:59.387Z,97995.77
2022-11-19T06:47:26.783Z,97993.98
2022-11-19T06:49:54.193Z,97998.17
2022-11-19T06:52:21.616Z,97994.17
2022-11-19T06:54:49.029Z,98001.59
2022-11-19T06:57:16.443Z,98008.97
2022-11-19T06:59:43.843Z,98011.98
2022-11-19T07:02:11.303Z,98010.81
2022-11-19T07:04:38.862Z,98012.58
2022-11-19T07:07:06.330Z,98018.98
2022-11-19T07:09:33.761Z,98021.02
2022-11-19T07:12:01.128Z,98020.80
2022-11-19T07:14:28.528Z,98021.42
2022-11-19T07:16:56.009Z,98019.20
2022-11-19T07:19:23.407Z,98019.14
2022-11-19T07:21:50.780Z,98021.55
2022-11-19T07:24:18.198Z,98025.62
2022-11-19T07:26:45.586Z,98030.56
2022-11-19T07:29:12.994Z,98032.89
2022-11-19T07:31:40.410Z,98035.20
2022-11-19T07:34:07.848Z,98034.84
2022-11-19T07:36:35.246Z,98037.09
2022-11-19T07:39:02.644Z,98035.61
2022-11-19T07:41:30.083Z,98037.73
2022-11-19T07:43:57.533Z,98042.45
2022-11-19T07:46:24.949Z,98042.65
2022-11-19T07:48:52.332Z,98042.13
2022-11-19T07:51:19.721Z,98037.83
2022-11-19T07:53:47.124Z,98034.83
2022-11-19T07:56:14.718Z,98033.17
2022-11-19T07:58:42.231Z,98036.98
2022-11-19T08:01:09.631Z,98038.99
2022-11-19T08:03:37.031Z,98042.20
2022-11-19T08:09:28.163Z,98048.23
2022-11-19T08:15:11.159Z,98057.86
2022-11-19T08:21:13.914Z,98056.46
2022-11-19T08:23:54.398Z,98056.02
2022-11-19T08:26:45.778Z,98057.04
2022-11-19T08:33:23.300Z,98049.82
2022-11-19T08:54:18.476Z,98079.70
2022-11-19T08:56:49.157Z,98075.08
2022-11-19T08:59:16.716Z,98074.59
2022-11-19T09:01:55.798Z,98077.31
2022-11-19T09:04:35.060Z,98083.99
2022-11-19T09:07:05.712Z,98082.10
2022-11-19T09:09:47.172Z,98089.42
2022-11-19T09:12:15.022Z,98091.02
2022-11-19T09:17:58.096Z,98090.48
2022-11-19T09:20:25.544Z,98094.08
2022-11-19T09:22:53.013Z,98093.77
2022-11-19T09:25:20.396Z,98098.45
2022-11-19T09:27:47.834Z,98098.66
2022-11-19T09:30:15.215Z,98098.53
2022-11-19T09:32:42.803Z,98104.87
2022-11-19T09:35:10.226Z,98106.56
2022-11-19T09:37:37.623Z,98110.50
2022-11-19T09:40:05.212Z,98106.23
2022-11-19T09:42:32.619Z,98105.52
2022-11-19T09:45:00.068Z,98102.88
2022-11-19T09:47:27.496Z,98101.98
2022-11-19T09:49:54.951Z,98101.20
2022-11-19T09:52:22.532Z,98098.18
2022-11-19T09:54:50.051Z,98099.77
2022-11-19T09:57:17.681Z,98099.48
2022-11-19T09:59:45.178Z,98100.14
2022-11-19T10:02:15.009Z,98096.32
2022-11-19T10:04:42.495Z,98096.45
2022-11-19T10:07:15.269Z,98094.16
2022-11-19T10:09:44.051Z,98091.16
2022-11-19T10:12:11.485Z,98094.89
2022-11-19T10:14:39.914Z,98091.61
2022-11-19T10:17:07.314Z,98095.40
2022-11-19T10:19:34.788Z,98093.85
2022-11-19T10:22:02.298Z,98097.24
2022-11-19T10:24:29.671Z,98097.52
2022-11-19T10:26:57.120Z,98100.58
2022-11-19T10:29:24.619Z,98102.00
2022-11-19T10:31:52.041Z,98100.11
2022-11-19T10:34:19.468Z,98099.73
2022-11-19T10:36:46.921Z,98097.71
2022-11-19T10:39:14.353Z,98093.89
2022-11-19T10:41:41.864Z,98093.67
2022-11-19T10:44:09.321Z,98094.13
2022-11-19T10:46:36.736Z,98097.86
2022-11-19T10:49:04.185Z,98095.23
2022-11-19T10:51:31.736Z,98089.42
2022-11-19T10:53:59.213Z,98089.05
2022-11-19T10:56:26.657Z,98091.56
2022-11-19T10:58:56.063Z,98093.89
2022-11-19T11:01:23.538Z,98095.93
2022-11-19T11:03:51.038Z,98096.39
2022-11-19T11:06:18.430Z,98098.05
2022-11-19T11:08:45.939Z,98096.13
2022-11-19T11:11:13.455Z,98095.75
2022-11-19T11:13:41.026Z,98092.36
2022-11-19T11:16:08.515Z,98093.99
2022-11-19T11:18:35.897Z,98094.01
2022-11-19T11:21:03.312Z,98094.10
2022-11-19T11:23:30.715Z,98094.49
2022-11-19T11:25:58.079Z,98096.83
2022-11-19T11:28:25.463Z,98102.45
2022-11-19T11:30:52.921Z,98100.83
2022-11-19T11:33:20.314Z,98101.35
2022-11-19T11:35:47.735Z,98095.91
2022-11-19T11:38:15.158Z,98094.40
2022-11-19T11:40:42.601Z,98091.53
2022-11-19T11:43:10.176Z,98091.73
2022-11-19T11:45:37.604Z,98089.54
2022-11-19T11:48:05.009Z,98089.02
2022-11-19T11:50:32.380Z,98093.04
2022-11-19T11:52:59.827Z,98084.67
2022-11-19T11:55:27.263Z,98085.94
2022-11-19T11:57:54.678Z,98083.63
2022-11-19T12:00:22.087Z,98085.33
2022-11-19T12:02:49.511Z,98088.56
2022-11-19T12:05:16.960Z,98089.37
2022-11-19T12:07:44.403Z,98091.34
2022-11-19T12:10:11.809Z,98093.30
2022-11-19T12:12:39.177Z,98092.58
2022-11-19T12:15:06.602Z,98094.20
2022-11-19T12:17:34.011Z,98097.48
2022-11-19T12:20:01.499Z,98101.17
2022-11-19T12:22:28.888Z,98104.20
2022-11-19T12:24:56.360Z,98100.29
2022-11-19T12:27:24.007Z,98098.98
2022-11-19T12:29:51.491Z,98099.77
2022-11-19T12:32:18.949Z,98098.55
2022-11-19T12:34:46.463Z,98093.04
2022-11-19T12:37:13.974Z,98098.77
2022-11-19T12:40:54.758Z,98106.77
2022-11-19T12:43:22.243Z,98108.41
2022-11-19T12:45:49.637Z,98108.48
2022-11-19T12:48:17.139Z,98113.67
2022-11-19T12:50:44.562Z,98113.95
2022-11-19T12:53:12.067Z,98118.47
2022-11-19T12:55:39.488Z,98124.11
2022-11-19T12:58:06.898Z,98125.11
2022-11-19T13:00:38.164Z,98123.88
2022-11-19T13:03:08.263Z,98125.56
2022-11-19T13:05:35.667Z,98118.29
2022-11-19T13:08:03.085Z,98116.48
2022-11-19T13:10:30.520Z,98119.55
2022-11-19T13:12:57.950Z,98120.42
2022-11-19T13:15:25.356Z,98119.00
2022-11-19T13:17:52.780Z,98120.54
2022-11-19T13:20:20.215Z,98124.41
2022-11-19T13:22:47.713Z,98125.14
2022-11-19T13:25:15.168Z,98129.99
2022-11-19T13:27:42.645Z,98129.19
2022-11-19T13:30:12.885Z,98128.06
2022-11-19T13:32:40.273Z,98130.11
2022-11-19T13:35:07.712Z,98136.23
2022-11-19T13:37:35.110Z,98143.64
2022-11-19T13:40:02.497Z,98145.94
2022-11-19T13:42:29.906Z,98144.45
2022-11-19T13:44:57.320Z,98141.01
2022-11-19T13:47:24.836Z,98143.62
2022-11-19T13:49:52.321Z,98141.98
2022-11-19T13:52:19.922Z,98138.54
2022-11-19T13:54:47.363Z,98128.38
2022-11-19T13:57:14.755Z,98126.85
2022-11-19T13:59:42.200Z,98134.39
2022-11-19T14:02:09.747Z,98132.98
2022-11-19T14:04:37.175Z,98133.48
2022-11-19T14:07:04.588Z,98135.77
2022-11-19T14:09:32.030Z,98139.80
2022-11-19T14:11:59.445Z,98138.94
2022-11-19T14:14:26.878Z,98139.56
2022-11-19T14:16:54.401Z,98137.40
2022-11-19T14:19:22.040Z,98137.70
2022-11-19T14:21:49.845Z,98139.78
2022-11-19T14:24:17.247Z,98138.79
2022-11-19T14:26:48.595Z,98141.66
2022-11-19T14:29:19.896Z,98147.11
2022-11-19T14:31:47.488Z,98146.89
2022-11-19T14:34:14.907Z,98147.20
2022-11-19T14:36:42.327Z,98144.60
2022-11-19T14:39:09.704Z,98149.58
2022-11-19T14:41:37.146Z,98145.56
2022-11-19T14:44:04.576Z,98150.08
2022-11-19T14:46:31.980Z,98144.36
2022-11-19T14:48:59.570Z,98146.29
2022-11-19T14:51:27.018Z,98140.95
2022-11-19T14:53:54.396Z,98142.54
2022-11-19T14:56:21.855Z,98148.23
2022-11-19T14:58:49.290Z,98149.59
2022-11-19T15:01:20.671Z,98148.98
2022-11-19T15:03:48.574Z,98148.60
2022-11-19T15:06:16.033Z,98142.09
2022-11-19T15:08:43.437Z,98147.12
2022-11-19T15:11:10.921Z,98144.86
2022-11-19T15:13:38.331Z,98154.27
2022-11-19T15:16:05.697Z,98161.17
2022-11-19T15:18:33.234Z,98162.40
2022-11-19T15:21:00.630Z,98158.80
2022-11-19T15:23:28.025Z,98156.23
2022-11-19T15:25:55.455Z,98157.79
2022-11-19T15:28:22.877Z,98158.86
2022-11-19T15:30:50.275Z,98158.40
2022-11-19T15:33:17.651Z,98159.36
2022-11-19T15:35:45.109Z,98159.35
2022-11-19T15:38:18.493Z,98167.02
2022-11-19T15:40:47.545Z,98170.98
2022-11-19T15:43:15.023Z,98173.80
2022-11-19T15:45:42.433Z,98178.98
2022-11-19T15:48:09.809Z,98174.95
2022-11-19T15:50:37.170Z,98177.30
2022-11-19T15:53:04.586Z,98176.16
2022-11-19T15:55:32.011Z,98177.74
2022-11-19T15:57:59.431Z,98179.44
2022-11-19T16:00:26.827Z,98180.77
2022-11-19T16:02:54.211Z,98180.02
2022-11-19T16:05:21.603Z,98179.27
2022-11-19T16:07:49.011Z,98182.75
2022-11-19T16:10:16.431Z,98186.48
2022-11-19T16:12:43.845Z,98184.02
2022-11-19T16:15:11.222Z,98180.30
2022-11-19T16:17:43.878Z,98174.06
2022-11-19T16:20:11.856Z,98175.54
2022-11-19T16:22:39.305Z,98176.34
2022-11-19T16:25:06.805Z,98176.69
2022-11-19T16:27:34.325Z,98175.05
2022-11-19T16:30:01.850Z,98177.70
2022-11-19T16:32:29.251Z,98174.17
2022-11-19T16:34:56.669Z,98170.90
2022-11-19T16:37:24.057Z,98169.73
2022-11-19T16:39:51.690Z,98173.92
2022-11-19T16:42:19.151Z,98175.48
2022-11-19T16:44:46.822Z,98179.30
2022-11-19T16:47:14.331Z,98172.30
2022-11-19T16:49:41.734Z,98173.41
2022-11-19T16:52:09.180Z,98170.63
2022-11-19T16:54:36.555Z,98171.52
2022-11-19T16:57:03.995Z,98168.30
2022-11-19T16:59:31.402Z,98164.55
2022-11-19T17:01:58.867Z,98161.14
2022-11-19T17:04:26.349Z,98160.47
2022-11-19T17:06:53.784Z,98157.46
2022-11-19T17:09:21.162Z,98155.37
2022-11-19T17:11:48.738Z,98155.79
2022-11-19T17:14:16.197Z,98155.69
2022-11-19T17:16:43.708Z,98148.94
2022-11-19T17:19:11.218Z,98149.73
2022-11-19T17:21:38.604Z,98151.91
2022-11-19T17:24:06.135Z,98152.33
2022-11-19T17:26:33.588Z,98152.61
2022-11-19T17:29:01.026Z,98150.30
2022-11-19T17:31:28.462Z,98152.36
2022-11-19T17:33:55.863Z,98154.96
2022-11-19T17:36:23.274Z,98152.24
2022-11-19T17:38:50.671Z,98148.44
2022-11-19T17:41:18.050Z,98148.33
2022-11-19T17:43:45.457Z,98145.04
2022-11-19T17:46:12.850Z,98145.52
2022-11-19T17:48:40.235Z,98151.77
2022-11-19T17:51:07.617Z,98154.77
2022-11-19T17:53:35.207Z,98157.71
2022-11-19T17:56:02.665Z,98160.73
2022-11-19T17:58:30.125Z,98153.79
2022-11-19T18:00:57.536Z,98154.82
2022-11-19T18:03:24.947Z,98152.86
2022-11-19T18:05:52.358Z,98153.59
2022-11-19T18:08:19.880Z,98154.69
2022-11-19T18:10:47.274Z,98150.25
2022-11-19T18:13:14.698Z,98149.48
2022-11-19T18:15:42.132Z,98152.83
2022-11-19T18:18:09.509Z,98152.01
2022-11-19T18:20:36.935Z,98153.84
2022-11-19T18:23:04.458Z,98155.76
2022-11-19T18:25:31.918Z,98161.35
2022-11-19T18:27:59.424Z,98161.83
2022-11-19T18:30:26.846Z,98159.60
2022-11-19T18:32:54.403Z,98163.48
2022-11-19T18:35:21.783Z,98168.04
2022-11-19T18:37:49.174Z,98168.64
2022-11-19T18:40:16.604Z,98165.55
2022-11-19T18:42:44.003Z,98165.44
2022-11-19T18:45:11.503Z,98165.00
2022-11-19T18:47:38.901Z,98163.23
2022-11-19T18:50:06.266Z,98159.03
2022-11-19T18:52:33.725Z,98159.65
2022-11-19T18:55:01.216Z,98158.80
2022-11-19T18:57:28.596Z,98157.30
2022-11-19T18:59:55.966Z,98157.16
2022-11-19T19:02:23.407Z,98158.85
2022-11-19T19:04:51.264Z,98161.48
2022-11-19T19:07:18.884Z,98161.95
2022-11-19T19:09:46.339Z,98162.34
2022-11-19T19:12:14.218Z,98164.34
2022-11-19T19:14:41.819Z,98162.66
2022-11-19T19:17:09.213Z,98158.92
2022-11-19T19:19:36.643Z,98160.40
2022-11-19T19:22:04.407Z,98157.11
2022-11-19T19:24:31.833Z,98153.59
2022-11-19T19:26:59.231Z,98150.70
2022-11-19T19:29:26.591Z,98151.27
2022-11-19T19:31:54.103Z,98153.55
2022-11-19T19:34:21.482Z,98161.71
2022-11-19T19:36:52.900Z,98168.09
2022-11-19T19:39:21.091Z,98170.19
2022-11-19T19:41:48.867Z,98170.68
2022-11-19T19:44:16.485Z,98167.30
2022-11-19T19:46:43.907Z,98159.98
2022-11-19T19:49:11.336Z,98158.85
2022-11-19T19:51:38.765Z,98160.86
2022-11-19T19:54:06.216Z,98157.79
2022-11-19T19:56:33.682Z,98160.23
2022-11-19T19:59:01.092Z,98159.36
2022-11-19T20:01:28.629Z,98159.52
2022-11-19T20:03:56.099Z,98152.74
2022-11-19T20:06:23.841Z,98156.66
2022-11-19T20:08:51.325Z,98156.09
2022-11-19T20:11:18.789Z,98157.19
2022-11-19T20:13:46.306Z,98161.49
2022-11-19T20:16:17.961Z,98157.87
2022-11-19T20:18:45.852Z,98159.76
2022-11-19T20:21:13.417Z,98159.31
2022-11-19T20:23:40.956Z,98160.99
2022-11-19T20:26:08.401Z,98163.99
2022-11-19T20:28:36.231Z,98163.23
2022-11-19T20:31:03.780Z,98162.38
2022-11-19T20:33:31.280Z,98166.28
2022-11-19T20:35:58.818Z,98165.51
2022-11-19T20:38:26.264Z,98162.05
2022-11-19T20:40:54.012Z,98163.82
2022-11-19T20:43:21.887Z,98165.14
2022-11-19T20:45:49.477Z,98172.52
2022-11-19T20:48:16.922Z,98170.27
2022-11-19T20:50:44.424Z,98168.63
2022-11-19T20:53:11.861Z,98165.13
2022-11-19T20:55:53.270Z,98157.70
2022-11-19T20:58:29.052Z,98158.70
2022-11-19T21:00:56.508Z,98155.84
2022-11-19T21:03:23.917Z,98162.69
2022-11-19T21:05:53.520Z,98155.34
2022-11-19T21:08:21.176Z,98153.23
2022-11-19T21:10:48.581Z,98152.42
2022-11-19T21:13:16.074Z,98143.02
2022-11-19T21:15:43.487Z,98141.71
2022-11-19T21:18:11.275Z,98139.66
2022-11-19T21:20:38.680Z,98137.34
2022-11-19T21:23:06.127Z,98140.45
2022-11-19T21:25:33.515Z,98142.91
2022-11-19T21:28:00.919Z,98140.38
2022-11-19T21:30:28.394Z,98146.27
2022-11-19T21:32:55.777Z,98142.21
2022-11-19T21:35:23.172Z,98135.27
2022-11-19T21:37:50.585Z,98141.30
2022-11-19T21:40:17.993Z,98150.11
2022-11-19T21:42:46.435Z,98150.08
2022-11-19T21:45:13.833Z,98152.94
2022-11-19T21:47:41.390Z,98152.73
2022-11-19T21:50:08.804Z,98151.62
2022-11-19T21:52:36.196Z,98150.00
2022-11-19T21:55:03.576Z,98148.92
2022-11-19T21:57:31.143Z,98147.20
2022-11-19T21:59:58.529Z,98150.44
2022-11-19T22:02:25.919Z,98151.27
2022-11-19T22:04:53.386Z,98154.16
2022-11-19T22:07:20.789Z,98156.36
2022-11-19T22:09:48.290Z,98159.66
2022-11-19T22:12:15.676Z,98164.81
2022-11-19T22:14:43.188Z,98164.65
2022-11-19T22:17:10.569Z,98160.84
2022-11-19T22:19:37.984Z,98162.08
2022-11-19T22:22:05.378Z,98158.05
2022-11-19T22:24:32.757Z,98160.03
2022-11-19T22:27:00.200Z,98157.33
2022-11-19T22:29:27.631Z,98156.09
2022-11-19T22:31:55.031Z,98157.11
2022-11-19T22:34:22.453Z,98157.64
2022-11-19T22:36:49.876Z,98154.53
2022-11-19T22:39:17.289Z,98147.73
2022-11-19T22:41:44.740Z,98149.05
2022-11-19T22:44:12.146Z,98142.88
2022-11-19T22:46:39.561Z,98141.25
2022-11-19T22:49:06.968Z,98137.02
2022-11-19T22:51:34.335Z,98136.33
2022-11-19T22:54:01.737Z,98140.30
2022-11-19T22:56:29.148Z,98142.06
2022-11-19T22:58:56.513Z,98142.67
2022-11-19T23:01:23.926Z,98148.44
2022-11-19T23:03:51.330Z,98152.55
2022-11-19T23:06:18.750Z,98155.66
2022-11-19T23:08:46.144Z,98144.20
2022-11-19T23:11:13.570Z,98143.48
2022-11-19T23:13:41.089Z,98144.22
2022-11-19T23:16:08.471Z,98147.89
2022-11-19T23:18:35.842Z,98145.53
2022-11-19T23:21:03.232Z,98139.31
2022-11-19T23:23:30.628Z,98141.91
2022-11-19T23:25:58.045Z,98139.94
2022-11-19T23:28:25.404Z,98145.20
2022-11-19T23:30:52.790Z,98151.48
2022-11-19T23:33:20.180Z,98142.48
2022-11-19T23:35:47.641Z,98141.42
2022-11-19T23:38:15.002Z,98141.75
2022-11-19T23:40:42.423Z,98139.52
2022-11-19T23:43:09.784Z,98143.01
2022-11-19T23:45:37.253Z,98149.95
2022-11-19T23:48:04.739Z,98146.88
2022-11-19T23:50:32.147Z,98140.66
2022-11-19T23:52:59.598Z,98141.12
2022-11-19T23:55:26.998Z,98141.27
2022-11-19T23:57:54.385Z,98139.71
